Tiempo atmosférico en la estación meteorológica de Ribadeo, Lugo (43 m.)



Fecha
DESCASC
Temp. máxima en grados centígrados (hora)
DESCASC
Temp. mínima en grados centígrados (hora)
DESCASC
Temp. media en grados centígrados
DESCASC
Racha de viento máxima en m/sg (hora)
DESCASC
Velocidad máxima media en intervalos de 10 minutos(hora)
DESCASC
Precipitaciones diarias en mm
DESCASC
Precipitaciones de 00:00 a 06:00 en mm
DESCASC
Precipitaciones de 06:00 a 12:00 en mm
DESCASC
Precipitaciones de 12:00 a 18:00 en mm
DESCASC
Precipitaciones de 18:00 a 24:00 en mm
DESCASC
11-12-2019 14.5 (00:00) 9.2 (03:30) 11.8 16.11 (00:20) 8.89 (00:30) 8.6 7.4 0 0 1.2
10-12-2019 16.7 (15:10) 6.9 (00:20) 11.8 17.5 (23:10) 10 (23:59) 0 0 0 0 0
09-12-2019 14.9 (13:50) 7.3 (23:59) 11.1 14.17 (01:00) 8.61 (01:00) 0 0 0 0 0
08-12-2019 16.3 (12:00) 9.8 (00:00) 13 15 (07:50) 10 (06:30) 2.6 0 1.8 0.8 0
07-12-2019 17.1 (15:10) 12.4 (00:00) 14.8 14.44 (23:10) 9.72 (23:30) 0 0 0 0 0
06-12-2019 15.4 (15:00) 7.6 (00:00) 11.5 7.78 (23:59) 5 (23:59) 0 0 0 0 0
05-12-2019 13.1 (15:00) 7.2 (00:00) 10.2 9.72 (12:40) 5.83 (15:40) 0.6 0 0.6 0 0
04-12-2019 12.1 (15:00) 2.6 (00:00) 7.4 6.67 (03:00) 4.72 (03:00) 0 0 0 0 0
03-12-2019 11.2 (14:50) 3.3 (00:00) 7.2 12.5 (14:00) 7.22 (13:40) 0 0 0 0 0
02-12-2019 11.3 (14:50) 8.9 (00:00) 10.1 14.17 (16:40) 8.61 (17:10) 13.4 11.8 1.6 0 0
01-12-2019 12.9 (13:30) 9.5 (00:00) 11.2 12.5 (17:20) 7.5 (15:40) 2.4 0 0 0.2 2.2
30-11-2019 17.7 (02:00) 9.9 (00:00) 13.8 15.83 (15:00) 9.17 (15:00) 6.4 2.2 1.2 2.8 0.2
29-11-2019 17 (13:10) 10.4 (00:00) 13.7 8.06 (23:50) 5 (23:50) 0 0 0 0 0
28-11-2019 14.9 (19:00) 12.2 (00:00) 13.5 13.61 (17:00) 8.06 (18:20) 3.2 0 0 2 1.2
27-11-2019 14.8 (13:10) 12.3 (00:00) 13.6 15.28 (01:10) 8.61 (04:00) 1.2 0.4 0 0.8 0
26-11-2019 19.1 (13:00) 12.3 (00:00) 15.7 18.89 (18:10) 11.67 (17:50) 6.6 0 0 6.2 0.4
25-11-2019 17.7 (23:59) 13.5 (00:00) 15.6 21.94 (21:40) 11.11 (23:20) 1.2 1.2 0 0 0
24-11-2019 16.7 (15:30) 10.5 (00:00) 13.6 20.56 (16:00) 11.39 (12:30) 0.2 0.2 0 0 0
23-11-2019 13.8 (15:40) 9.5 (00:00) 11.7 18.61 (00:10) 10.83 (00:10) 15.2 9.8 4.2 1.2 0
22-11-2019 16.1 (11:20) 11.1 (00:00) 13.6 16.67 (23:30) 10 (23:59) 20.8 0.2 1.8 4 14.8
21-11-2019 14.9 (15:10) 8.5 (00:00) 11.7 11.94 (14:50) 7.22 (11:00) 0.8 0.8 0 0 0
20-11-2019 15.2 (15:20) 8.3 (00:00) 11.8 12.78 (17:40) 7.22 (18:10) 0 0 0 0 0
19-11-2019 12.5 (14:40) 6.3 (00:00) 9.4 13.33 (13:10) 8.33 (11:50) 1.8 0 0 1.8 0
18-11-2019 13.2 (14:30) 6.4 (00:00) 9.8 -- (--) -- (--) -- -- 5.6 1 0
17-11-2019 13.8 (14:00) 8.8 (00:00) 11.3 14.17 (02:30) 10 (05:10) 24.6 0.2 1.4 6.2 16.8
16-11-2019 12.4 (14:00) 7.5 (00:00) 9.9 12.78 (23:40) 8.61 (23:50) 8.2 7.2 1 0 0
15-11-2019 -- (--) -- (--) -- -- (--) -- (--) -- 7.4 -- 16.6 0.6

Gráficas

Temp. máximas Temp. mínimas Temp. medias Precipitaciones Rachas de viento máximas Velocidades máximas media en intervalos de 10 minutos

Datos horarios

Fecha y hora oficial Temperatura (ºC) Velocidad del viento (km/h) Dirección del viento Racha (km/h) Dirección de racha Precipitación (mm) Presión (hPa) Tendencia (hPa) Humedad (%)
2019-12-14 23:00:00 14.3 20 Sudoeste 49 Sudoeste 0 -- -- 76
2019-12-14 22:00:00 14.7 28 Sur 55 Sudoeste 0 -- -- 74
2019-12-14 21:00:00 14.3 23 Sudoeste 64 Sudoeste 0 -- -- 76
2019-12-14 20:00:00 14.7 30 Sudoeste 63 Sur 0 -- -- 72
2019-12-14 19:00:00 14.6 26 Sudoeste 59 Sudoeste 0 -- -- 72
2019-12-14 18:00:00 15 15 Sudoeste 49 Sudoeste 0 -- -- 68
2019-12-14 17:00:00 15.3 19 Sur 45 Sudoeste 0 -- -- 69
2019-12-14 16:00:00 16.3 14 Sudoeste 45 Sudoeste 0 -- -- 66
2019-12-14 15:00:00 15.8 17 Sudoeste 44 Sudoeste 0 -- -- 68
2019-12-14 14:00:00 15.1 22 Sudoeste 46 Sudoeste 0 -- -- 74
2019-12-14 13:00:00 15.5 18 Sudoeste 50 Sudoeste 0 -- -- 74
2019-12-14 12:00:00 14.9 17 Sudoeste 50 Oeste 0 -- -- 72
2019-12-14 11:00:00 14.9 23 Sudoeste 59 Sur 0 -- -- 72
2019-12-14 10:00:00 13.2 26 Sudoeste 45 Sudoeste 0 -- -- 80
2019-12-14 09:00:00 13.1 21 Sudoeste 44 Sudoeste 0 -- -- 79
2019-12-14 08:00:00 13.4 6 Oeste 41 Sudoeste 0 -- -- 77
2019-12-14 07:00:00 13.2 20 Sudoeste 40 Sur 0 -- -- 79
2019-12-14 06:00:00 13.8 24 Sudoeste 52 Sudoeste 0 -- -- 76
2019-12-14 05:00:00 14.2 28 Sudoeste 53 Sudoeste 0 -- -- 73
2019-12-14 04:00:00 14.3 21 Sudoeste 44 Sudoeste 0 -- -- 74
2019-12-14 03:00:00 14.3 13 Sudoeste 36 Oeste 0 -- -- 74
2019-12-14 02:00:00 14.1 15 Sudoeste 43 Sudoeste 0 -- -- 75
2019-12-14 01:00:00 14.4 21 Sudoeste 52 Sudoeste 0 -- -- 73
2019-12-14 00:00:00 13.9 19 Sur 39 Oeste 0 -- -- 76
2019-12-13 23:00:00 14.3 15 Sudoeste 49 Sudoeste 0 -- -- 70
2019-12-13 22:00:00 13.8 15 Sudoeste 36 Sudoeste 0 -- -- 70
2019-12-13 21:00:00 13.9 12 Sur 38 Sudoeste 0 -- -- 74
2019-12-13 20:00:00 14.5 20 Sudoeste 42 Sudoeste 0 -- -- 71
2019-12-13 19:00:00 14.6 19 Sudoeste 60 Oeste 0 -- -- 70
2019-12-13 18:00:00 15.4 40 Oeste 63 Oeste 0 -- -- 65
2019-12-13 17:00:00 15.4 27 Oeste 47 Sudoeste 0 -- -- 72
2019-12-13 16:00:00 15.2 19 Sudoeste 42 Oeste 0 -- -- 80
2019-12-13 15:00:00 16.9 20 Oeste 44 Sudoeste 0 -- -- 74
2019-12-13 14:00:00 16.7 13 Oeste 32 Oeste 0 -- -- 74
2019-12-13 13:00:00 16.8 17 Sudoeste 32 Sudoeste 0 -- -- 75
2019-12-13 12:00:00 16.7 16 Sudoeste 29 Oeste 0 -- -- 75
2019-12-13 11:00:00 16.6 13 Sudoeste 32 Sudoeste 0 -- -- 75
2019-12-13 10:00:00 16.3 21 Oeste 42 Oeste 0 -- -- 74
2019-12-13 09:00:00 16.4 23 Oeste 53 Oeste 0 -- -- 73
2019-12-13 08:00:00 16.4 30 Oeste 48 Oeste 0 -- -- 73
2019-12-13 07:00:00 16.4 25 Sudoeste 60 Oeste 0 -- -- 72
2019-12-13 06:00:00 16.3 24 Oeste 47 Oeste 0 -- -- 73
2019-12-13 05:00:00 16.3 24 Sudoeste 46 Sudoeste 0 -- -- 73
2019-12-13 04:00:00 16 18 Sudoeste 55 Oeste 0 -- -- 75
2019-12-13 03:00:00 16.3 26 Oeste 52 Oeste 0 -- -- 73
2019-12-13 02:00:00 16.4 28 Oeste 61 Oeste 0 -- -- 73
2019-12-13 01:00:00 16.1 33 Oeste 51 Oeste 0 -- -- 78
2019-12-13 00:00:00 16 23 Oeste 48 Oeste 0 -- -- 78
2019-12-12 23:00:00 15.6 23 Oeste 43 Oeste 0 -- -- 80
2019-12-12 22:00:00 15.6 22 Oeste 43 Oeste 0.2 -- -- 80
2019-12-12 21:00:00 15.2 28 Oeste 45 Oeste 0.4 -- -- 85
2019-12-12 20:00:00 15.6 30 Oeste 48 Oeste 0 -- -- 81
2019-12-12 19:00:00 15.2 26 Oeste 42 Oeste 0.4 -- -- 84
2019-12-12 18:00:00 14.7 23 Oeste 44 Oeste 0 -- -- 87
2019-12-12 17:00:00 14.6 26 Oeste 41 Oeste 0 -- -- 87
2019-12-12 16:00:00 14.5 21 Oeste 36 Oeste 1 -- -- 88
2019-12-12 15:00:00 14.3 21 Sudoeste 48 Sudoeste 0.8 -- -- 85
2019-12-12 14:00:00 14.1 28 Sudoeste 54 Sudoeste 0.4 -- -- 82
2019-12-12 13:00:00 13.3 31 Sudoeste 56 Sudoeste 0.4 -- -- 82
2019-12-12 12:00:00 12.6 33 Sudoeste 58 Sudoeste 0.6 -- -- 82
2019-12-12 11:00:00 11.5 30 Sudoeste 52 Sudoeste 1 -- -- 84
2019-12-12 10:00:00 11.9 21 Sudoeste 52 Sudoeste 0 -- -- 76
2019-12-12 09:00:00 11.3 20 Sudoeste 47 Sudoeste 0.8 -- -- 79
2019-12-12 08:00:00 12 25 Sudoeste 44 Sudoeste 0 -- -- 73
2019-12-12 07:00:00 11.7 22 Sudoeste 46 Sudoeste 0 -- -- 79
2019-12-12 06:00:00 11.7 24 Sudoeste 45 Sudoeste 0.2 -- -- 78
2019-12-12 05:00:00 11.7 22 Sudoeste 41 Sudoeste 0 -- -- 78
2019-12-12 04:00:00 12.1 21 Sudoeste 42 Sudoeste 0 -- -- 73
2019-12-12 03:00:00 11.7 19 Sudoeste 39 Sudoeste 0 -- -- 75
2019-12-12 02:00:00 10.8 18 Sur 34 Sudoeste 0.2 -- -- 81
2019-12-12 01:00:00 11.7 23 Sudoeste 36 Sudoeste 0 -- -- 75
2019-12-12 00:00:00 10.7 16 Sur 27 Sudoeste 0 -- -- 81
2019-12-11 23:00:00 11.2 14 Sudoeste 24 Sudoeste 0 -- -- 76
2019-12-11 22:00:00 10.6 15 Sur 32 Sur 0.4 -- -- 85
2019-12-11 21:00:00 11.4 17 Sudoeste 33 Oeste 0 -- -- 74
2019-12-11 20:00:00 11 15 Oeste 25 Sur 0.6 -- -- 80
2019-12-11 19:00:00 11.5 13 Sudoeste 36 Sudoeste 0.2 -- -- 75
2019-12-11 18:00:00 11.5 13 Sudoeste 30 Sudoeste 0 -- -- 75
2019-12-11 17:00:00 11.7 13 Sudoeste 34 Sudoeste 0 -- -- 74
2019-12-11 16:00:00 11.6 18 Sudoeste 37 Sudoeste 0 -- -- 73
2019-12-11 15:00:00 12.4 23 Oeste 48 Sudoeste 0 -- -- 67
2019-12-11 14:00:00 11.6 18 Sudoeste 36 Sudoeste 0 -- -- 71
2019-12-11 13:00:00 11.8 23 Sudoeste 43 Sudoeste 0 -- -- 68
2019-12-11 12:00:00 11.5 18 Sudoeste 32 Sur 0 -- -- 68
2019-12-11 11:00:00 10.5 16 Sur 30 Sur 0 -- -- 73
2019-12-11 10:00:00 9.3 16 Sur 25 Sur 0 -- -- 76
2019-12-11 09:00:00 9.3 13 Sudoeste 25 Sudoeste 0 -- -- 72
2019-12-11 08:00:00 9.2 13 Sudoeste 27 Oeste 0 -- -- 75
2019-12-11 07:00:00 9.6 15 Oeste 30 Oeste 0 -- -- 79
2019-12-11 06:00:00 9.6 13 Sudoeste 22 Oeste 0 -- -- 86
2019-12-11 05:00:00 9.2 10 Sudoeste 18 Oeste 1.2 -- -- 91
2019-12-11 04:00:00 9.2 13 Oeste 22 Oeste 1.8 -- -- 94
2019-12-11 03:00:00 9.3 18 Oeste 33 Noroeste 0.6 -- -- 93
2019-12-11 02:00:00 10.1 22 Noroeste 38 Sudoeste 2.8 -- -- 94
2019-12-11 01:00:00 12.5 24 Sur 58 Sur 1 -- -- 83
2019-12-11 00:00:00 14.5 36 Sur 63 Sur 0 -- -- 64
2019-12-10 23:00:00 14.9 31 Sudoeste 55 Sudoeste 0 -- -- 55
2019-12-10 22:00:00 14.9 33 Sur 57 Sur 0 -- -- 47
2019-12-10 21:00:00 15.1 22 Sur 37 Sur 0 -- -- 40
2019-12-10 20:00:00 15.7 13 Sur 37 Sur 0 -- -- 35
2019-12-10 19:00:00 15.7 14 Sur 39 Sur 0 -- -- 36
2019-12-10 18:00:00 15.9 23 Sur 36 Sudoeste 0 -- -- 38
2019-12-10 17:00:00 15.7 9 Oeste 33 Sur 0 -- -- 39
2019-12-10 16:00:00 15.7 15 Sudoeste 39 Sudoeste 0 -- -- 40
2019-12-10 15:00:00 16.6 11 Sur 40 Sur 0 -- -- 36
2019-12-10 14:00:00 15.9 9 Sudoeste 46 Sur 0 -- -- 36
2019-12-10 13:00:00 16 17 Sudoeste 31 Sur 0 -- -- 37
2019-12-10 12:00:00 14.7 10 Sur 24 Sur 0 -- -- 43
2019-12-10 11:00:00 13.9 10 Oeste 33 Sur 0 -- -- 49
2019-12-10 10:00:00 9.7 5 Sudeste 8 Sudeste 0 -- -- 78
2019-12-10 09:00:00 10.7 4 Sudeste 13 Noroeste 0 -- -- 73
2019-12-10 08:00:00 11.6 11 Oeste 31 Sudoeste 0 -- -- 61
2019-12-10 07:00:00 9.6 3 Norte 9 Norte 0 -- -- 66
2019-12-10 06:00:00 8.6 9 Este 30 Sur 0 -- -- 76
2019-12-10 05:00:00 8.3 19 Sur 28 Sudoeste 0 -- -- 81
2019-12-10 04:00:00 7 10 Sur 15 Sur 0 -- -- 86
2019-12-10 03:00:00 9.1 13 Sur 22 Sur 0 -- -- 79
2019-12-10 02:00:00 7.3 9 Sur 15 Sur 0 -- -- 88
2019-12-10 01:00:00 7.3 9 Sur 16 Sur 0 -- -- 90
2019-12-10 00:00:00 7.3 5 Sur 13 Sur 0 -- -- 91
2019-12-09 23:00:00 7.7 10 Sur 18 Sudeste 0 -- -- 92
2019-12-09 22:00:00 8 4 Sur 10 Sur 0 -- -- 93
2019-12-09 21:00:00 8.3 6 Sudeste 10 Sudeste 0 -- -- 92
2019-12-09 20:00:00 9.7 9 Sur 12 Sur 0 -- -- 90
2019-12-09 19:00:00 10.7 5 Sur 9 Sudoeste 0 -- -- 87
2019-12-09 18:00:00 12.2 3 Sudoeste 8 Noroeste 0 -- -- 82
2019-12-09 17:00:00 13.8 4 Oeste 10 Oeste 0 -- -- 76
2019-12-09 16:00:00 14 6 Noroeste 14 Norte 0 -- -- 76
2019-12-09 15:00:00 14.3 6 Norte 12 Norte 0 -- -- 74
2019-12-09 14:00:00 14.8 6 Oeste 19 Sudoeste 0 -- -- 68
2019-12-09 13:00:00 14.2 11 Sudoeste 21 Sudoeste 0 -- -- 70
2019-12-09 12:00:00 12.8 10 Sur 21 Sudoeste 0 -- -- 75
2019-12-09 11:00:00 12.4 10 Sur 25 Sur 0 -- -- 73
2019-12-09 10:00:00 11.6 18 Sur 31 Sur 0 -- -- 74
2019-12-09 09:00:00 11.8 15 Sur 31 Sur 0 -- -- 73
2019-12-09 08:00:00 11.3 15 Sur 31 Sur 0 -- -- 74
2019-12-09 07:00:00 11 21 Sur 36 Sur 0 -- -- 74
2019-12-09 06:00:00 10.7 23 Sur 36 Sur 0 -- -- 74
2019-12-09 05:00:00 10.6 20 Sur 29 Sur 0 -- -- 74
2019-12-09 04:00:00 10.1 11 Sudoeste 31 Sur 0 -- -- 75
2019-12-09 03:00:00 10.4 19 Sur 40 Sur 0 -- -- 74
2019-12-09 02:00:00 10.6 24 Sur 44 Sur 0 -- -- 73
2019-12-09 01:00:00 10.6 31 Sur 51 Sur 0 -- -- 75
2019-12-09 00:00:00 10.5 19 Sur 29 Sur 0 -- -- 76
2019-12-08 23:00:00 10.5 17 Sur 32 Sudeste 0 -- -- 77
2019-12-08 22:00:00 10.1 8 Oeste 22 Sur 0 -- -- 79
2019-12-08 21:00:00 10.6 10 Sur 23 Sur 0 -- -- 76
2019-12-08 20:00:00 10.6 9 Sudoeste 18 Oeste 0 -- -- 78
2019-12-08 19:00:00 11.2 8 Sudoeste 15 Oeste 0 -- -- 77
2019-12-08 18:00:00 11.8 7 Oeste 13 Oeste 0 -- -- 82
2019-12-08 17:00:00 12.8 8 Oeste 18 Noroeste 0 -- -- 84
2019-12-08 16:00:00 13.1 13 Noroeste 25 Noroeste 0 -- -- 84
2019-12-08 15:00:00 12.7 13 Oeste 26 Noroeste 0 -- -- 92
2019-12-08 14:00:00 12.9 12 Noroeste 23 Oeste 0.4 -- -- 95
2019-12-08 13:00:00 12.8 13 Oeste 31 Norte 0.4 -- -- 95
2019-12-08 12:00:00 16.3 12 Oeste 37 Sudoeste 0 -- -- 80
2019-12-08 11:00:00 16 16 Sudoeste 32 Sudoeste 0 -- -- 80
2019-12-08 10:00:00 14.9 9 Sudoeste 22 Sur 0.6 -- -- 87
2019-12-08 09:00:00 14.8 11 Sur 49 Sur 1.2 -- -- 87
2019-12-08 08:00:00 15.8 35 Sur 54 Sur 0 -- -- 78
2019-12-08 07:00:00 15.2 35 Sur 54 Sur 0 -- -- 81
2019-12-08 06:00:00 15.7 32 Sur 53 Sur 0 -- -- 78
2019-12-08 05:00:00 15.7 32 Sur 51 Sur 0 -- -- 77
2019-12-08 04:00:00 15.5 9 Sudoeste 23 Sudoeste 0 -- -- 78
2019-12-08 03:00:00 15.4 8 Sudoeste 22 Oeste 0 -- -- 78
2019-12-08 02:00:00 15.6 14 Sudoeste 41 Sur 0 -- -- 77
2019-12-08 01:00:00 15.5 19 Sudoeste 51 Sur 0 -- -- 76
2019-12-08 00:00:00 15.6 31 Sur 52 Sur 0 -- -- 76
2019-12-07 23:00:00 15.6 33 Sur 49 Sur 0 -- -- 74
2019-12-07 22:00:00 15.6 27 Sur 45 Sur 0 -- -- 73
2019-12-07 21:00:00 15.2 21 Sur 42 Sur 0 -- -- 72
2019-12-07 20:00:00 15.2 26 Sur 39 Sur 0 -- -- 73
2019-12-07 19:00:00 15.3 19 Sur 38 Sur 0 -- -- 74
2019-12-07 18:00:00 14.7 19 Sur 31 Sur 0 -- -- 77
2019-12-07 17:00:00 15.8 16 Sur 33 Sur 0 -- -- 73
2019-12-07 16:00:00 15.8 20 Sur 32 Sudoeste 0 -- -- 76
2019-12-07 15:00:00 16.8 22 Sur 37 Sur 0 -- -- 71
2019-12-07 14:00:00 16.1 17 Sur 28 Sur 0 -- -- 71
2019-12-07 13:00:00 15.3 15 Sur 27 Sur 0 -- -- 69
2019-12-07 12:00:00 15 13 Sudoeste 25 Sudoeste 0 -- -- 67
2019-12-07 11:00:00 14.6 15 Sudoeste 38 Sur 0 -- -- 66
2019-12-07 10:00:00 14.2 25 Sur 38 Sur 0 -- -- 65
2019-12-07 09:00:00 14 16 Sur 32 Sur 0 -- -- 66
2019-12-07 08:00:00 13.8 21 Sur 31 Sur 0 -- -- 67
2019-12-07 07:00:00 14 18 Sudoeste 31 Sur 0 -- -- 67
2019-12-07 06:00:00 13.3 21 Sur 35 Sur 0 -- -- 69
2019-12-07 05:00:00 12.9 23 Sur 37 Sur 0 -- -- 76
2019-12-07 04:00:00 12.4 16 Sur 24 Sur 0 -- -- 80
2019-12-07 03:00:00 13.1 8 Sur 23 Sudoeste 0 -- -- 74
2019-12-07 02:00:00 12.4 4 Norte 18 Sudoeste 0 -- -- 77
2019-12-07 01:00:00 12.6 9 Oeste 28 Sur 0 -- -- 73
2019-12-07 00:00:00 12.8 18 Sur 28 Sur 0 -- -- 71
2019-12-06 23:00:00 11.5 3 Oeste 9 Sur 0 -- -- 82
2019-12-06 22:00:00 9.4 4 Este 9 Sudeste 0 -- -- 92
2019-12-06 21:00:00 8.8 7 Sudeste 9 Sur 0 -- -- 91
2019-12-06 20:00:00 9.1 7 Oeste 10 Oeste 0 -- -- 90
2019-12-06 19:00:00 9.9 3 Sudeste 13 Sudeste 0 -- -- 89
2019-12-06 18:00:00 11 8 Sur 12 Sudeste 0 -- -- 86
2019-12-06 17:00:00 13.2 5 Noroeste 8 Oeste 0 -- -- 79
2019-12-06 16:00:00 14.2 4 Norte 13 Noroeste 0 -- -- 73
2019-12-06 15:00:00 15.4 4 Sudoeste 14 Sudoeste 0 -- -- 66
2019-12-06 14:00:00 14.3 6 Oeste 12 Sudoeste 0 -- -- 68
2019-12-06 13:00:00 12.7 8 Sudoeste 17 Sudoeste 0 -- -- 75
2019-12-06 12:00:00 12 10 Sudoeste 19 Sudoeste 0 -- -- 74
2019-12-06 11:00:00 11.3 7 Sur 13 Sudeste 0 -- -- 83
2019-12-06 10:00:00 9.3 3 Sur 6 Sur 0 -- -- 89
2019-12-06 09:00:00 9.2 0 Calma 22 Oeste 0 -- -- 87
2019-12-06 08:00:00 8.9 7 Noroeste 23 Sur 0 -- -- 90
2019-12-06 07:00:00 8.4 13 Sudeste 19 Sudeste 0 -- -- 92
2019-12-06 06:00:00 8.4 2 Sur 14 Sur 0 -- -- 92
2019-12-06 05:00:00 8.9 12 Sur 17 Sur 0 -- -- 91
2019-12-06 04:00:00 8.6 14 Sur 19 Sur 0 -- -- 95
2019-12-06 03:00:00 8.1 10 Sur 14 Sur 0 -- -- 94
2019-12-06 02:00:00 7.9 8 Sur 10 Sur 0 -- -- 94
2019-12-06 01:00:00 8.6 3 Sudeste 14 Sur 0 -- -- 95
2019-12-06 00:00:00 7.6 8 Sur 10 Sur 0 -- -- 95
2019-12-05 23:00:00 7.6 2 Sur 9 Sur 0 -- -- 94
2019-12-05 22:00:00 8.7 2 Sudoeste 10 Sudeste 0 -- -- 93
2019-12-05 21:00:00 10.6 5 Este 14 Sudeste 0 -- -- 91
2019-12-05 20:00:00 11.8 9 Este 29 Este 0 -- -- 90
2019-12-05 19:00:00 12.1 17 Este 29 Nordeste 0 -- -- 90
2019-12-05 18:00:00 12 15 Este 28 Este 0 -- -- 91
2019-12-05 17:00:00 12.2 14 Este 27 Nordeste 0 -- -- 89
2019-12-05 16:00:00 12.6 18 Este 32 Nordeste 0 -- -- 85
2019-12-05 15:00:00 13.1 16 Nordeste 31 Nordeste 0 -- -- 85
2019-12-05 14:00:00 12.5 15 Este 30 Este 0 -- -- 87
2019-12-05 13:00:00 12.1 16 Este 35 Este 0 -- -- 90
2019-12-05 12:00:00 12.1 14 Este 23 Este 0 -- -- 88
2019-12-05 11:00:00 11.8 12 Este 26 Este 0 -- -- 88
2019-12-05 10:00:00 11.5 14 Este 27 Nordeste 0 -- -- 90
2019-12-05 09:00:00 10.5 11 Este 20 Este 0 -- -- 94
2019-12-05 08:00:00 10.1 3 Este 17 Este 0.4 -- -- 96
2019-12-05 07:00:00 9.7 8 Este 12 Este 0.2 -- -- 94
2019-12-05 06:00:00 9.6 4 Este 15 Sudeste 0 -- -- 93
2019-12-05 05:00:00 9.1 0 Calma 5 Sudeste 0 -- -- 93
2019-12-05 04:00:00 8.5 2 Sur 6 Sur 0 -- -- 93
2019-12-05 03:00:00 8.3 4 Sur 9 Oeste 0 -- -- 91
2019-12-05 02:00:00 8.2 0 Calma 5 Sudeste 0 -- -- 93
2019-12-05 01:00:00 7.8 3 Sur 9 Sudeste 0 -- -- 94
2019-12-05 00:00:00 7.2 5 Sur 9 Sudeste 0 -- -- 94
2019-12-04 23:00:00 6.4 4 Sur 10 Sur 0 -- -- 92
2019-12-04 22:00:00 7.4 6 Sur 8 Sudeste 0 -- -- 91
2019-12-04 21:00:00 7.2 4 Sudoeste 10 Sudeste 0 -- -- 89
2019-12-04 20:00:00 7.4 8 Sudeste 10 Sudeste 0 -- -- 90
2019-12-04 19:00:00 5.9 7 Sudeste 10 Sudeste 0 -- -- 87
2019-12-04 18:00:00 7.1 5 Sur 8 Sudeste 0 -- -- 81
2019-12-04 17:00:00 10.8 4 Sudeste 10 Este 0 -- -- 71
2019-12-04 16:00:00 11.4 6 Nordeste 8 Nordeste 0 -- -- 65
2019-12-04 15:00:00 12.1 5 Este 12 Este 0 -- -- 57
2019-12-04 14:00:00 11.4 4 Este 8 Sudeste 0 -- -- 57
2019-12-04 13:00:00 11.3 6 Sudeste 13 Sudeste 0 -- -- 53
2019-12-04 12:00:00 10.2 8 Sudeste 10 Sudeste 0 -- -- 62
2019-12-04 11:00:00 8.2 5 Sudeste 9 Sudeste 0 -- -- 74
2019-12-04 10:00:00 6 0 Calma 19 Sur 0 -- -- 77
2019-12-04 09:00:00 4.5 15 Sur 19 Sur 0 -- -- 77
2019-12-04 08:00:00 3.5 6 Sur 17 Sur 0 -- -- 80
2019-12-04 07:00:00 3.4 10 Sur 19 Sur 0 -- -- 82
2019-12-04 06:00:00 3.4 6 Sudeste 17 Oeste 0 -- -- 81
2019-12-04 05:00:00 4.8 6 Sur 22 Sudoeste 0 -- -- 77
2019-12-04 04:00:00 2.9 17 Sur 19 Sur 0 -- -- 89
2019-12-04 03:00:00 3.2 17 Sur 24 Sur 0 -- -- 88
2019-12-04 02:00:00 3.7 3 Sudeste 14 Sur 0 -- -- 88
2019-12-04 01:00:00 3.6 12 Sur 16 Sudeste 0 -- -- 90
2019-12-04 00:00:00 3.4 9 Sur 13 Sur 0 -- -- 88
2019-12-03 23:00:00 4.2 8 Sudeste 11 Sudeste 0 -- -- 86
2019-12-03 22:00:00 6.5 10 Sudeste 22 Sudeste -- -- -- 78
2019-12-03 21:00:00 7.1 14 Este 27 Este 0 -- -- 76
2019-12-03 20:00:00 6.4 4 Este 12 Sudeste 0 -- -- 82
2019-12-03 19:00:00 7.8 8 Sudeste 18 Este 0 -- -- 77
2019-12-03 18:00:00 9.1 14 Este 34 Este 0 -- -- 72
2019-12-03 17:00:00 10.4 18 Este 33 Este 0 -- -- 67
2019-12-03 16:00:00 10.8 24 Este 37 Este 0 -- -- 63
2019-12-03 15:00:00 11.1 25 Este 42 Nordeste 0 -- -- 63
2019-12-03 14:00:00 10.9 26 Este 45 Este 0 -- -- 60
2019-12-03 13:00:00 10.8 25 Este 40 Este 0 -- -- 62
2019-12-03 12:00:00 10.5 20 Este 33 Este 0 -- -- 65
2019-12-03 11:00:00 10 15 Este 28 Este 0 -- -- 66
2019-12-03 10:00:00 8.2 8 Este 14 Este 0 -- -- 74
2019-12-03 09:00:00 6.5 9 Sudeste 18 Este 0 -- -- 77
2019-12-03 08:00:00 7.1 12 Este 23 Este 0 -- -- 77
2019-12-03 07:00:00 7.2 10 Este 19 Este 0 -- -- 78
2019-12-03 06:00:00 7.7 12 Este 26 Este 0 -- -- 77
2019-12-03 05:00:00 7.3 14 Este 23 Este 0 -- -- 78
2019-12-03 04:00:00 5.7 7 Sudeste 12 Sudeste 0 -- -- 84
2019-12-03 03:00:00 6.5 9 Sudeste 14 Este 0 -- -- 81
2019-12-03 02:00:00 7.2 7 Este 12 Este 0 -- -- 79
2019-12-03 01:00:00 7.4 7 Este 13 Este 0 -- -- 77
2019-12-03 00:00:00 8.9 10 Este 21 Este 0 -- -- 72
2019-12-02 23:00:00 9.3 10 Este 21 Este 0 -- -- 67
2019-12-02 22:00:00 9.5 12 Este 33 Este 0 -- -- 66
2019-12-02 21:00:00 9.5 17 Este 37 Este 0 -- -- 69
2019-12-02 20:00:00 9.9 18 Este 48 Este 0 -- -- 71
2019-12-02 19:00:00 10.3 27 Este 48 Nordeste 0 -- -- 70
2019-12-02 18:00:00 10.6 28 Este 46 Este 0 -- -- 69
2019-12-02 17:00:00 10.7 28 Este 51 Este 0 -- -- 72
2019-12-02 16:00:00 10.9 27 Nordeste 44 Nordeste 0 -- -- 74
2019-12-02 15:00:00 11.3 26 Nordeste 47 Nordeste 0 -- -- 72
2019-12-02 14:00:00 11.1 27 Este 44 Nordeste 0 -- -- 68
2019-12-02 13:00:00 10.9 25 Nordeste 46 Este 0 -- -- 69
2019-12-02 12:00:00 10.9 21 Nordeste 41 Nordeste 0 -- -- 75
2019-12-02 11:00:00 10.7 22 Nordeste 39 Nordeste 0 -- -- 77
2019-12-02 10:00:00 10.7 24 Nordeste 48 Nordeste 0 -- -- 78
2019-12-02 09:00:00 10.8 23 Nordeste 42 Nordeste 0 -- -- 80
2019-12-02 08:00:00 11 24 Nordeste 48 Nordeste 0 -- -- 81
2019-12-02 07:00:00 11 25 Nordeste 46 Nordeste 1.6 -- -- 86
2019-12-02 06:00:00 10.3 23 Nordeste 45 Nordeste 3 -- -- 93
2019-12-02 05:00:00 10.8 23 Nordeste 45 Nordeste 1.4 -- -- 90
2019-12-02 04:00:00 10.4 19 Nordeste 50 Nordeste 2.2 -- -- 91
2019-12-02 03:00:00 10 15 Nordeste 47 Nordeste 1 -- -- 90
2019-12-02 02:00:00 9.7 15 Nordeste 38 Nordeste 2.4 -- -- 91
2019-12-02 01:00:00 9.6 17 Nordeste 43 Este 1.8 -- -- 91
2019-12-02 00:00:00 10.3 19 Norte 38 Norte 1.6 -- -- 86
2019-12-01 23:00:00 10.4 18 Norte 42 Nordeste 0.2 -- -- 82
2019-12-01 22:00:00 10.4 17 Norte 38 Norte 0.4 -- -- 82
2019-12-01 21:00:00 11.5 19 Norte 39 Nordeste 0 -- -- 70
2019-12-01 20:00:00 11.8 23 Nordeste 36 Nordeste 0 -- -- 67
2019-12-01 19:00:00 11.6 17 Norte 38 Norte 0 -- -- 73
2019-12-01 18:00:00 11.4 17 Nordeste 45 Norte 0 -- -- 76
2019-12-01 17:00:00 11.5 25 Nordeste 43 Nordeste 0.2 -- -- 80
2019-12-01 16:00:00 11.8 19 Nordeste 43 Nordeste 0 -- -- 86
2019-12-01 15:00:00 12.8 16 Nordeste 32 Nordeste 0 -- -- 80
2019-12-01 14:00:00 12.8 14 Nordeste 32 Nordeste 0 -- -- 84
2019-12-01 13:00:00 12.6 13 Nordeste 29 Nordeste 0 -- -- 81
2019-12-01 12:00:00 11 5 Noroeste 12 Norte 0 -- -- 93
2019-12-01 11:00:00 10.4 3 Nordeste 20 Este 0 -- -- 93
2019-12-01 10:00:00 10.3 10 Este 19 Este 0 -- -- 94
2019-12-01 09:00:00 9.5 5 Sudoeste 14 Este 0 -- -- 92
2019-12-01 08:00:00 10.1 8 Este 21 Nordeste 0 -- -- 87
2019-12-01 07:00:00 10.6 8 Sudeste 17 Sudeste 0 -- -- 82
2019-12-01 06:00:00 10.5 10 Sudeste 13 Sudeste 0 -- -- 86
2019-12-01 05:00:00 10.8 11 Sudeste 19 Este 0 -- -- 85
2019-12-01 04:00:00 10.1 5 Sudeste 10 Nordeste 0 -- -- 86
2019-12-01 03:00:00 10.1 6 Este 10 Sur 0 -- -- 86
2019-12-01 02:00:00 9.9 5 Sudeste 8 Sudoeste 0 -- -- 87
2019-12-01 01:00:00 10 5 Sur 10 Sur 0 -- -- 86
2019-12-01 00:00:00 9.9 6 Sur 15 Sur 0 -- -- 86
2019-11-30 23:00:00 11.4 13 Sur 39 Sudoeste 0 -- -- 80
2019-11-30 22:00:00 11.8 17 Sur 36 Sudoeste 0 -- -- 74
2019-11-30 21:00:00 12.2 16 Sudoeste 32 Sur 0 -- -- 74
2019-11-30 20:00:00 12.2 17 Sur 31 Sur 0 -- -- 74
2019-11-30 19:00:00 12 15 Sudoeste 35 Sur 0.2 -- -- 80
2019-11-30 18:00:00 12.2 16 Sur 29 Sur 0 -- -- 77
2019-11-30 17:00:00 12.1 18 Sur 28 Sur 0.2 -- -- 77
2019-11-30 16:00:00 12.2 13 Sudoeste 31 Oeste 0.6 -- -- 81
2019-11-30 15:00:00 11.9 33 Oeste 57 Oeste 2 -- -- 73
2019-11-30 14:00:00 14.1 19 Sudoeste 51 Oeste 0 -- -- 61
2019-11-30 13:00:00 14.6 15 Sudoeste 37 Oeste 0 -- -- 63
2019-11-30 12:00:00 14.7 14 Sudoeste 26 Sudoeste 0 -- -- 66
2019-11-30 11:00:00 14.2 14 Sudoeste 33 Sudoeste 0 -- -- 67
2019-11-30 10:00:00 13.7 15 Sudoeste 27 Sudoeste 0 -- -- 62
2019-11-30 09:00:00 13.4 10 Oeste 21 Sudoeste 0 -- -- 75
2019-11-30 08:00:00 12.9 15 Sur 18 Sur 0 -- -- 82
2019-11-30 07:00:00 12.9 9 Sudoeste 32 Oeste 1.2 -- -- 80
2019-11-30 06:00:00 13.2 24 Oeste 40 Noroeste 2 -- -- 93
2019-11-30 05:00:00 17.2 19 Sudoeste 34 Sur 0 -- -- 77
2019-11-30 04:00:00 16.5 18 Sur 36 Sur 0.2 -- -- 85
2019-11-30 03:00:00 16.8 17 Sur 36 Sudoeste 0 -- -- 81
2019-11-30 02:00:00 17.7 20 Sudoeste 41 Sur 0 -- -- 74
2019-11-30 01:00:00 16.6 11 Sudoeste 33 Sur 0 -- -- 73
2019-11-30 00:00:00 15.8 17 Sur 29 Sur 0 -- -- 69
2019-11-29 23:00:00 12.3 11 Sur 18 Sur 0 -- -- 86
2019-11-29 22:00:00 10.4 0 Calma 10 Sur 0 -- -- 91
2019-11-29 21:00:00 11.4 10 Sudeste 12 Sur 0 -- -- 89
2019-11-29 20:00:00 11.2 6 Sudeste 12 Sudeste 0 -- -- 91
2019-11-29 19:00:00 11.6 2 Sur 11 Sudeste 0 -- -- 82
2019-11-29 18:00:00 12.4 8 Sudeste 10 Sudeste 0 -- -- 82
2019-11-29 17:00:00 14.5 5 Sudeste 9 Este 0 -- -- 76
2019-11-29 16:00:00 15.4 4 Este 11 Nordeste 0 -- -- 70
2019-11-29 15:00:00 16.3 8 Nordeste 11 Nordeste 0 -- -- 65
2019-11-29 14:00:00 16.2 4 Noroeste 15 Oeste 0 -- -- 69
2019-11-29 13:00:00 16.8 6 Sudoeste 17 Sudoeste 0 -- -- 66
2019-11-29 12:00:00 16 6 Sudoeste 14 Oeste 0 -- -- 68
2019-11-29 11:00:00 15.2 6 Sudoeste 15 Sudoeste 0 -- -- 71
2019-11-29 10:00:00 14.2 10 Sudoeste 18 Sudoeste 0 -- -- 74
2019-11-29 09:00:00 13.4 14 Sudoeste 26 Sur 0 -- -- 75
2019-11-29 08:00:00 12.7 12 Sur 19 Sur 0 -- -- 80
2019-11-29 07:00:00 12.7 12 Sur 20 Sur 0 -- -- 79
2019-11-29 06:00:00 13 11 Sudoeste 19 Sudoeste 0 -- -- 78
2019-11-29 05:00:00 13.2 10 Sudoeste 22 Sudoeste 0 -- -- 79
2019-11-29 04:00:00 13.1 10 Sur 19 Sur 0 -- -- 80
2019-11-29 03:00:00 12.5 5 Sur 15 Sur 0 -- -- 86
2019-11-29 02:00:00 11.3 6 Sur 10 Sur 0 -- -- 93
2019-11-29 01:00:00 12.2 3 Sudoeste 7 Oeste 0 -- -- 91
2019-11-29 00:00:00 12.2 5 Oeste 12 Sur 0 -- -- 91
2019-11-28 23:00:00 12.8 9 Sur 15 Oeste 0 -- -- 89
2019-11-28 22:00:00 13.6 14 Oeste 18 Oeste 0 -- -- 86
2019-11-28 21:00:00 13.1 12 Oeste 17 Oeste 0.8 -- -- 94
2019-11-28 20:00:00 13.6 10 Oeste 23 Oeste 0 -- -- 92
2019-11-28 19:00:00 14.9 7 Oeste 49 Sur 0.4 -- -- 86
2019-11-28 18:00:00 14.7 23 Sur 42 Sudoeste 0.4 -- -- 85
2019-11-28 17:00:00 14.2 26 Sur 49 Sudoeste 0.2 -- -- 86
2019-11-28 16:00:00 13 15 Sur 27 Sur 1 -- -- 89
2019-11-28 15:00:00 14 9 Sudoeste 30 Oeste 0.2 -- -- 79
2019-11-28 14:00:00 14.4 10 Sudoeste 30 Sudoeste 0.2 -- -- 79
2019-11-28 13:00:00 14 19 Sur 27 Sudoeste 0 -- -- 78
2019-11-28 12:00:00 13.7 11 Sudoeste 22 Sudoeste 0 -- -- 72
2019-11-28 11:00:00 13.5 8 Sudoeste 33 Sudoeste 0 -- -- 71
2019-11-28 10:00:00 13.2 11 Sudoeste 24 Sudoeste 0 -- -- 72
2019-11-28 09:00:00 13.4 14 Sudoeste 29 Sudoeste 0 -- -- 68
2019-11-28 08:00:00 13.4 13 Sur 23 Sudoeste 0 -- -- 72
2019-11-28 07:00:00 13.1 10 Sur 23 Sur 0 -- -- 81
2019-11-28 06:00:00 13.6 11 Sur 24 Sur 0 -- -- 76
2019-11-28 05:00:00 13.9 15 Sudoeste 29 Sudoeste 0 -- -- 74
2019-11-28 04:00:00 14 10 Sudoeste 22 Sudoeste 0 -- -- 74
2019-11-28 03:00:00 13.9 11 Sudoeste 30 Sudoeste 0 -- -- 73
2019-11-28 02:00:00 14 19 Oeste 32 Sudoeste 0 -- -- 73
2019-11-28 01:00:00 14.2 19 Oeste 37 Oeste 0 -- -- 72
2019-11-28 00:00:00 14.3 21 Sudoeste 38 Sudoeste 0 -- -- 74
2019-11-27 23:00:00 13.8 13 Sur 38 Sudoeste 0 -- -- 77
2019-11-27 22:00:00 14.2 23 Sudoeste 39 Oeste 0 -- -- 73
2019-11-27 21:00:00 14.2 22 Sudoeste 46 Sudoeste 0 -- -- 72
2019-11-27 20:00:00 14.2 22 Sudoeste 40 Sudoeste 0 -- -- 73
2019-11-27 19:00:00 13.3 11 Sudoeste 31 Sudoeste 0 -- -- 81
2019-11-27 18:00:00 14.1 17 Sudoeste 32 Sudoeste 0 -- -- 73
2019-11-27 17:00:00 13.7 17 Sudoeste 32 Oeste 0.4 -- -- 77
2019-11-27 16:00:00 13.6 17 Oeste 41 Oeste 0.2 -- -- 82
2019-11-27 15:00:00 14.2 18 Sudoeste 39 Sudoeste 0 -- -- 71
2019-11-27 14:00:00 13.5 21 Sudoeste 43 Sudoeste 0.2 -- -- 78
2019-11-27 06:00:00 -- -- -- -- -- -- -- -- --
2019-11-27 05:00:00 -- -- -- -- -- -- -- -- --
2019-11-27 04:00:00 -- -- -- -- -- -- -- -- --
2019-11-27 03:00:00 -- -- -- -- -- -- -- -- --
2019-11-27 02:00:00 13.7 23 Sudoeste 55 Sudoeste 0 -- -- 73
2019-11-27 01:00:00 13.4 31 Sudoeste 52 Sudoeste 0.4 -- -- 75
2019-11-27 00:00:00 12.6 19 Sudoeste 49 Sudoeste 0 -- -- 79
2019-11-26 23:00:00 13.5 23 Sudoeste 47 Sur 0 -- -- 71
2019-11-26 22:00:00 13.5 21 Sudoeste 46 Sudoeste 0 -- -- 69
2019-11-26 21:00:00 13.5 24 Sudoeste 58 Sudoeste 0 -- -- 67
2019-11-26 20:00:00 13.5 33 Sudoeste 65 Sudoeste 0 -- -- 66
2019-11-26 19:00:00 13.3 31 Sudoeste 68 Oeste 0.4 -- -- 68
2019-11-26 18:00:00 12.7 30 Sudoeste 67 Oeste 6.2 -- -- 79
2019-11-26 17:00:00 16.8 23 Sudoeste 54 Sudoeste 0 -- -- 68
2019-11-26 16:00:00 15.6 19 Sudoeste 49 Sudoeste 0 -- -- 80
2019-11-26 15:00:00 17.2 30 Sudoeste 65 Sur 0 -- -- 69
2019-11-26 14:00:00 18.7 23 Sur 66 Sur 0 -- -- 58
2019-11-26 13:00:00 19.1 27 Sudoeste 58 Sudoeste 0 -- -- 55
2019-11-26 12:00:00 18.3 28 Sur 62 Sudoeste 0 -- -- 60
2019-11-26 11:00:00 18.2 24 Sudoeste 59 Sur 0 -- -- 60
2019-11-26 10:00:00 18 28 Sudoeste 58 Sudoeste 0 -- -- 60
2019-11-26 09:00:00 17.2 24 Sudoeste 56 Sudoeste 0 -- -- 66
2019-11-26 08:00:00 17.5 16 Sudoeste 44 Oeste 0 -- -- 67
2019-11-26 07:00:00 17.7 23 Oeste 44 Oeste 0 -- -- 73
2019-11-26 06:00:00 17 22 Sudoeste 41 Sur 0 -- -- 78
2019-11-26 05:00:00 18 16 Sudoeste 44 Sudoeste 0 -- -- 73
2019-11-26 04:00:00 18.7 15 Sudoeste 46 Sudoeste 0 -- -- 68
2019-11-26 03:00:00 18.8 22 Sudoeste 56 Sudoeste 0 -- -- 66
2019-11-26 02:00:00 18.6 33 Sudoeste 63 Sur 0 -- -- 65
2019-11-26 01:00:00 18.3 30 Sur 63 Sur 0 -- -- 62
2019-11-26 00:00:00 17.7 31 Sur 66 Sur 0 -- -- 62
2019-11-25 23:00:00 17 34 Sudoeste 71 Sur 0 -- -- 63
2019-11-25 22:00:00 16.9 38 Sur 79 Sudoeste 0 -- -- 64
2019-11-25 21:00:00 16.4 31 Sur 62 Sur 0 -- -- 65
2019-11-25 20:00:00 15.8 28 Sur 60 Sur 0 -- -- 66
2019-11-25 19:00:00 15.5 15 Sudoeste 33 Sur 0 -- -- 71
2019-11-25 18:00:00 15.6 13 Sudoeste 36 Sudoeste 0 -- -- 68
2019-11-25 17:00:00 15.8 13 Sudoeste 26 Sudoeste 0 -- -- 70
2019-11-25 16:00:00 15.9 6 Oeste 30 Oeste 0 -- -- 71
2019-11-25 15:00:00 15.6 8 Oeste 31 Oeste 0 -- -- 69
2019-11-25 14:00:00 15.6 4 Sudoeste 33 Oeste 0 -- -- 68
2019-11-25 13:00:00 15.3 22 Sudoeste 48 Oeste 0 -- -- 70
2019-11-25 12:00:00 14.9 19 Sudoeste 34 Sudoeste 0 -- -- 75
2019-11-25 11:00:00 14.5 19 Oeste 29 Oeste 0 -- -- 79
2019-11-25 10:00:00 14.5 14 Sudoeste 34 Oeste 0 -- -- 76
2019-11-25 09:00:00 14.3 24 Sudoeste 36 Sudoeste 0 -- -- 74
2019-11-25 08:00:00 14.3 16 Sudoeste 31 Sudoeste 0 -- -- 77
2019-11-25 07:00:00 14.2 20 Sudoeste 41 Oeste 0 -- -- 77
2019-11-25 06:00:00 15.2 23 Sudoeste 38 Sudoeste 0 -- -- 72
2019-11-25 05:00:00 14.8 19 Sudoeste 34 Sudoeste 0 -- -- 73
2019-11-25 04:00:00 15.2 15 Sudoeste 32 Sudoeste 0 -- -- 77
2019-11-25 03:00:00 15.2 23 Sudoeste 52 Oeste 0 -- -- 78
2019-11-25 02:00:00 15.1 24 Sudoeste 42 Sudoeste 1.2 -- -- 77
2019-11-25 01:00:00 16.3 19 Sudoeste 37 Oeste 0 -- -- 77
2019-11-25 00:00:00 15.9 17 Sudoeste 32 Sudoeste 0 -- -- 78
2019-11-24 23:00:00 15.5 17 Sudoeste 39 Sudoeste 0 -- -- 83
2019-11-24 22:00:00 16.3 14 Sudoeste 39 Sudoeste 0 -- -- 75
2019-11-24 21:00:00 16.1 16 Sudoeste 34 Sudoeste 0 -- -- 75
2019-11-24 20:00:00 15.8 22 Sudoeste 51 Sudoeste 0 -- -- 75
2019-11-24 19:00:00 15.5 27 Sudoeste 53 Sur 0 -- -- 75
2019-11-24 18:00:00 15.5 26 Sur 62 Sur 0 -- -- 73
2019-11-24 17:00:00 15.8 37 Sur 70 Sudoeste 0 -- -- 70
2019-11-24 16:00:00 16.3 39 Sur 74 Sur 0 -- -- 67
2019-11-24 15:00:00 15.9 40 Sur 63 Sur 0 -- -- 67
2019-11-24 14:00:00 14.6 31 Sur 53 Sur 0 -- -- 69
2019-11-24 13:00:00 13.9 36 Sur 64 Sur 0 -- -- 68
2019-11-24 12:00:00 13.3 37 Sur 65 Sur 0 -- -- 70
2019-11-24 11:00:00 13 33 Sur 64 Sur 0 -- -- 69
2019-11-24 10:00:00 12.5 29 Sur 50 Sur 0 -- -- 70
2019-11-24 09:00:00 11.9 29 Sur 48 Sur 0 -- -- 70
2019-11-24 08:00:00 11.5 18 Sudoeste 34 Sudoeste 0 -- -- 73
2019-11-24 07:00:00 11.3 16 Sur 35 Sur 0 -- -- 73
2019-11-24 06:00:00 10.8 22 Sur 38 Sur 0.2 -- -- 77
2019-11-24 05:00:00 10.7 19 Sur 35 Sur 0 -- -- 76
2019-11-24 04:00:00 11 19 Sudoeste 35 Sudoeste 0 -- -- 75
2019-11-24 03:00:00 10.8 20 Sur 32 Sur 0 -- -- 79
2019-11-24 02:00:00 10.5 15 Sur 21 Sur 0 -- -- 82
2019-11-24 01:00:00 10.7 14 Sur 23 Sur 0 -- -- 82
2019-11-24 00:00:00 10.7 14 Sur 24 Sur 0 -- -- 81
2019-11-23 23:00:00 10.9 9 Sudoeste 26 Sudoeste 0 -- -- 81
2019-11-23 22:00:00 11.8 14 Sudoeste 33 Sudoeste 0 -- -- 69
2019-11-23 21:00:00 11.6 12 Sudoeste 30 Sudoeste 0 -- -- 71
2019-11-23 20:00:00 11.6 12 Sudoeste 28 Oeste 0 -- -- 71
2019-11-23 19:00:00 11.6 15 Sudoeste 30 Sudoeste 0 -- -- 72
2019-11-23 18:00:00 11.9 13 Sudoeste 31 Sudoeste 0 -- -- 73
2019-11-23 17:00:00 11.6 13 Oeste 31 Oeste 0.2 -- -- 78
2019-11-23 16:00:00 13 19 Oeste 33 Oeste 0 -- -- 71
2019-11-23 15:00:00 13.5 14 Sudoeste 31 Oeste 0 -- -- 71
2019-11-23 14:00:00 13.3 21 Oeste 36 Noroeste 1 -- -- 76
2019-11-23 13:00:00 13.2 23 Oeste 40 Oeste 0 -- -- 74
2019-11-23 12:00:00 12.8 18 Oeste 37 Oeste 0 -- -- 76
2019-11-23 11:00:00 11.6 19 Oeste 32 Oeste 0.4 -- -- 80
2019-11-23 10:00:00 10.3 12 Sudoeste 32 Oeste 0.6 -- -- 85
2019-11-23 09:00:00 10 6 Sur 35 Oeste 1.6 -- -- 85
2019-11-23 08:00:00 9.9 20 Oeste 34 Oeste 0.6 -- -- 83
2019-11-23 07:00:00 9.9 19 Oeste 33 Oeste 1 -- -- 84
2019-11-23 06:00:00 9.9 18 Oeste 35 Oeste 0.4 -- -- 80
2019-11-23 05:00:00 10.5 23 Oeste 43 Oeste 0 -- -- 74
2019-11-23 04:00:00 10.1 24 Oeste 49 Oeste 0.2 -- -- 79
2019-11-23 03:00:00 9.6 28 Oeste 48 Oeste 4.2 -- -- 92
2019-11-23 02:00:00 10.5 33 Oeste 59 Oeste 2.8 -- -- 89
2019-11-23 01:00:00 11.1 29 Oeste 67 Oeste 2.2 -- -- 91
2019-11-23 00:00:00 11.6 36 Oeste 60 Oeste 2.8 -- -- 91
2019-11-22 23:00:00 11.1 24 Oeste 43 Oeste 3 -- -- 90
2019-11-22 22:00:00 11.1 23 Oeste 41 Oeste 6.8 -- -- 92
2019-11-22 21:00:00 12.2 24 Sudoeste 44 Sudoeste 1.4 -- -- 86
2019-11-22 20:00:00 12.4 20 Sur 45 Sudoeste 0.6 -- -- 83
2019-11-22 19:00:00 13.1 26 Sudoeste 57 Sur 0.2 -- -- 77
2019-11-22 18:00:00 12.3 17 Sudoeste 35 Sur 0.2 -- -- 82
2019-11-22 17:00:00 12.9 20 Sudoeste 42 Sudoeste 0.2 -- -- 77
2019-11-22 16:00:00 12.4 18 Sudoeste 44 Sudoeste 0.4 -- -- 80
2019-11-22 15:00:00 11.2 26 Sudoeste 56 Sudoeste 2.6 -- -- 81
2019-11-22 14:00:00 15.7 22 Sudoeste 46 Sudoeste 0 -- -- 69
2019-11-22 13:00:00 15.1 17 Sudoeste 56 Oeste 0.6 -- -- 76
2019-11-22 12:00:00 14.7 19 Sudoeste 55 Sudoeste 0.6 -- -- 83
2019-11-22 11:00:00 14.4 15 Sur 38 Sur 0 -- -- 80
2019-11-22 10:00:00 12.9 9 Sudoeste 45 Sur 0.8 -- -- 84
2019-11-22 09:00:00 14.3 29 Sur 50 Sur 0.2 -- -- 73
2019-11-22 08:00:00 14 27 Sur 46 Sur 0 -- -- 68
2019-11-22 07:00:00 12.7 12 Sur 35 Sur 0.2 -- -- 70
2019-11-22 06:00:00 11.8 8 Nordeste 23 Sudeste 0 -- -- 73
2019-11-22 05:00:00 11.1 13 Sudeste 32 Sur 0.2 -- -- 76
2019-11-22 04:00:00 11.5 16 Sur 34 Sur 0 -- -- 73
2019-11-22 03:00:00 12.7 10 Sur 28 Sudeste 0 -- -- 60
2019-11-22 02:00:00 11.6 5 Sudeste 12 Sur 0 -- -- 64
2019-11-22 01:00:00 12 9 Sur 32 Sur 0 -- -- 63
2019-11-22 00:00:00 11.9 17 Sur 31 Sur 0 -- -- 65
2019-11-21 23:00:00 11.5 13 Sur 25 Sur 0 -- -- 68
2019-11-21 22:00:00 11.3 12 Sur 27 Sudoeste 0 -- -- 69
2019-11-21 21:00:00 11.1 13 Sudoeste 25 Sudoeste 0 -- -- 71
2019-11-21 20:00:00 10.7 10 Sur 33 Sur 0 -- -- 73
2019-11-21 19:00:00 11.5 11 Sur 28 Sur 0 -- -- 65
2019-11-21 18:00:00 11.6 13 Sur 28 Sudoeste 0 -- -- 65
2019-11-21 17:00:00 13 19 Sudoeste 33 Sudoeste 0 -- -- 60
2019-11-21 16:00:00 13.4 19 Sudoeste 38 Oeste 0 -- -- 59
2019-11-21 15:00:00 14.8 22 Sudoeste 43 Sudoeste 0 -- -- 56
2019-11-21 14:00:00 14.5 21 Sudoeste 40 Sur 0 -- -- 60
2019-11-21 13:00:00 13.4 18 Sudoeste 37 Sudoeste 0 -- -- 66
2019-11-21 12:00:00 12.3 21 Sur 40 Sur 0 -- -- 71
2019-11-21 11:00:00 11.2 26 Sur 39 Sur 0 -- -- 73
2019-11-21 10:00:00 9.7 23 Sur 36 Sur 0 -- -- 76
2019-11-21 09:00:00 9.8 19 Sudoeste 37 Sudoeste 0 -- -- 74
2019-11-21 08:00:00 9.5 19 Sur 30 Sur 0 -- -- 76
2019-11-21 07:00:00 9.5 19 Sur 32 Sur 0 -- -- 76
2019-11-21 06:00:00 9.5 20 Sur 31 Sur 0 -- -- 77
2019-11-21 05:00:00 9.5 21 Sur 37 Sudoeste 0 -- -- 77
2019-11-21 04:00:00 9.3 21 Sur 38 Sudoeste 0 -- -- 76
2019-11-21 03:00:00 9.2 23 Sur 41 Sudoeste 0 -- -- 78
2019-11-21 02:00:00 9.2 21 Sur 35 Sur 0 -- -- 79
2019-11-21 01:00:00 8.9 22 Sur 41 Sudoeste 0.8 -- -- 81
2019-11-21 00:00:00 10.8 17 Sudoeste 38 Sudoeste 0 -- -- 71
2019-11-20 23:00:00 10.7 20 Sur 39 Sur 0 -- -- 73
2019-11-20 22:00:00 10.5 24 Sur 35 Sur 0 -- -- 75
2019-11-20 21:00:00 10.6 19 Sur 33 Sur 0 -- -- 74
2019-11-20 20:00:00 10.7 21 Sur 42 Sur 0 -- -- 74
2019-11-20 19:00:00 11.1 24 Sur 44 Sur 0 -- -- 74
2019-11-20 18:00:00 11 23 Sur 46 Sur 0 -- -- 76
2019-11-20 17:00:00 12.5 13 Sur 38 Sudoeste 0 -- -- 68
2019-11-20 16:00:00 13.3 22 Sudoeste 33 Sudoeste 0 -- -- 63
2019-11-20 15:00:00 15.1 19 Sudoeste 33 Sudoeste 0 -- -- 58
2019-11-20 14:00:00 15.1 14 Sur 25 Sur 0 -- -- 64
2019-11-20 13:00:00 13.4 12 Sur 28 Sur 0 -- -- 69
2019-11-20 12:00:00 13 17 Sur 32 Sur 0 -- -- 69
2019-11-20 11:00:00 12.4 20 Sudoeste 37 Sudoeste 0 -- -- 71
2019-11-20 10:00:00 11.8 17 Sudoeste 33 Sudoeste 0 -- -- 73
2019-11-20 09:00:00 11.2 17 Sudoeste 40 Sudoeste 0 -- -- 75
2019-11-20 08:00:00 11.3 23 Sudoeste 42 Sudoeste 0 -- -- 74
2019-11-20 07:00:00 11 22 Sudoeste 33 Sudoeste 0 -- -- 76
2019-11-20 06:00:00 11.1 17 Sudoeste 33 Sudoeste 0 -- -- 76
2019-11-20 05:00:00 10.3 11 Sur 20 Sudoeste 0 -- -- 81
2019-11-20 04:00:00 8.5 6 Sudeste 13 Sudeste 0 -- -- 91
2019-11-20 03:00:00 9.5 3 Sur 8 Sudeste 0 -- -- 89
2019-11-20 02:00:00 10.3 5 Sur 8 Este 0 -- -- 88
2019-11-20 01:00:00 11.3 3 Sudeste 14 Sudoeste 0 -- -- 83
2019-11-20 00:00:00 11.7 12 Sudoeste 18 Sudoeste 0 -- -- 79
2019-11-19 23:00:00 10.3 4 Este 23 Sudoeste 0 -- -- 88
2019-11-19 22:00:00 11.1 13 Sudoeste 23 Sudoeste 0 -- -- 84
2019-11-19 21:00:00 10.3 7 Sudoeste 18 Sudoeste 0 -- -- 90
2019-11-19 20:00:00 9.3 2 Este 10 Sudeste 0 -- -- 94
2019-11-19 19:00:00 9.4 7 Sudeste 10 Sudeste 0 -- -- 93
2019-11-19 18:00:00 9.8 6 Este 9 Este 0 -- -- 91
2019-11-19 17:00:00 10.2 3 Este 9 Sudeste 0.2 -- -- 90
2019-11-19 16:00:00 10.2 6 Sudeste 12 Sudoeste 1.6 -- -- 86
2019-11-19 15:00:00 12.3 6 Sudeste 27 Sur 0 -- -- 69
2019-11-19 14:00:00 12.2 17 Sudoeste 48 Sur 0 -- -- 63
2019-11-19 13:00:00 12.1 28 Sur 44 Sur 0 -- -- 62
2019-11-19 12:00:00 12 25 Sur 46 Sur 0 -- -- 62
2019-11-19 11:00:00 11.4 27 Sur 47 Sur 0 -- -- 62
2019-11-19 10:00:00 10.3 20 Sur 36 Sur 0 -- -- 66
2019-11-19 09:00:00 6.8 4 Norte 12 Norte 0 -- -- 82
2019-11-19 08:00:00 6.8 8 Este 22 Sur 0 -- -- 81
2019-11-19 07:00:00 8.3 18 Sur 32 Sur 0 -- -- 74
2019-11-19 06:00:00 8.9 20 Sur 32 Sur 0 -- -- 72
2019-11-19 05:00:00 9 21 Sur 34 Sudoeste 0 -- -- 72
2019-11-19 04:00:00 8.6 10 Sudoeste 25 Sudoeste 0 -- -- 75
2019-11-19 03:00:00 7.4 5 Nordeste 17 Sudeste 0 -- -- 84
2019-11-19 02:00:00 7 6 Sudeste 12 Sudeste 0 -- -- 87
2019-11-19 01:00:00 9 6 Noroeste 27 Sur 0 -- -- 79
2019-11-19 00:00:00 7.3 12 Sur 19 Sur 0 -- -- 91
2019-11-18 23:00:00 6.6 0 Calma 6 Este 0 -- -- 91
2019-11-18 22:00:00 7.9 0 Calma 14 Sur 0 -- -- 88
2019-11-18 21:00:00 9.4 11 Sur 17 Sur 0 -- -- 88
2019-11-18 20:00:00 9.5 11 Sur 14 Sur 0 -- -- 90
2019-11-18 19:00:00 9.2 3 Sudoeste 8 Sur -- -- -- 90
2019-11-18 18:00:00 10.1 8 Sur 9 Sudeste 0 -- -- 90
2019-11-18 17:00:00 11.2 7 Oeste 12 Oeste 0 -- -- 85
2019-11-18 16:00:00 12.1 3 Oeste 9 Oeste 0 -- -- 79
2019-11-18 15:00:00 12.1 4 Noroeste 11 Oeste 0 -- -- 83
2019-11-18 14:00:00 12 6 Sur 16 Sudoeste 0 -- -- 83
2019-11-18 13:00:00 11.6 6 Sudoeste 13 Sur 1 -- -- 87
2019-11-18 12:00:00 10.6 0 Calma 14 Sur 1.8 -- -- 91
2019-11-18 11:00:00 9.7 13 Sur 17 Sur 0.2 -- -- 90
2019-11-18 10:00:00 9 10 Sudoeste 23 Sur 1.4 -- -- 92
2019-11-18 09:00:00 8.5 9 Sudeste 15 Sudoeste 2.2 -- -- 93
2019-11-18 08:00:00 8.2 12 Sur 15 Sur 0 -- -- 91
2019-11-18 07:00:00 9.2 12 Oeste 21 Oeste 0 -- -- 89
2019-11-18 06:00:00 9.2 -- -- -- -- -- -- -- --
2019-11-18 05:00:00 8.8 10 Sur 15 Sur 0 -- -- 93
2019-11-18 04:00:00 8.8 10 Sur 28 Sudeste 0.6 -- -- 92
2019-11-18 03:00:00 8.9 0 Calma 14 Sudeste 0 -- -- 92
2019-11-18 02:00:00 9.1 3 Sudeste 28 Sudeste 0 -- -- 92
2019-11-18 01:00:00 9.2 3 Noroeste 19 Nordeste 2 -- -- 91
2019-11-18 00:00:00 8.9 4 Sur 17 Este 6 -- -- 92
2019-11-17 23:00:00 -- -- -- -- -- -- -- -- --
2019-11-17 22:00:00 -- -- -- -- -- -- -- -- --
2019-11-17 21:00:00 -- -- -- -- -- -- -- -- --
2019-11-17 20:00:00 -- -- -- -- -- -- -- -- --
2019-11-17 19:00:00 -- -- -- -- -- -- -- -- --
2019-11-17 18:00:00 -- -- -- -- -- -- -- -- --
2019-11-17 17:00:00 -- -- -- -- -- -- -- -- --
2019-11-17 16:00:00 -- -- -- -- -- -- -- -- --
2019-11-17 15:00:00 -- -- -- -- -- -- -- -- --
2019-11-17 14:00:00 -- -- -- -- -- -- -- -- --
2019-11-17 13:00:00 -- -- -- -- -- -- -- -- --
2019-11-17 12:00:00 -- -- -- -- -- -- -- -- --
2019-11-17 11:00:00 -- -- -- -- -- -- -- -- --
2019-11-17 10:00:00 -- -- -- -- -- -- -- -- --
2019-11-17 09:00:00 -- -- -- -- -- -- -- -- --
2019-11-17 08:00:00 -- -- -- -- -- -- -- -- --
2019-11-17 07:00:00 -- -- -- -- -- -- -- -- --
2019-11-17 06:00:00 -- -- -- -- -- -- -- -- --
2019-11-17 05:00:00 -- -- -- -- -- -- -- -- --
2019-11-17 04:00:00 -- -- -- -- -- -- -- -- --
2019-11-17 03:00:00 -- -- -- -- -- -- -- -- --
2019-11-17 02:00:00 -- -- -- -- -- -- -- -- --
2019-11-17 01:00:00 -- -- -- -- -- -- -- -- --
2019-11-17 00:00:00 -- -- -- -- -- -- -- -- --
2019-11-16 23:00:00 -- -- -- -- -- -- -- -- --
2019-11-16 22:00:00 -- -- -- -- -- -- -- -- --
2019-11-16 21:00:00 -- -- -- -- -- -- -- -- --
2019-11-16 20:00:00 -- -- -- -- -- -- -- -- --
2019-11-16 19:00:00 -- -- -- -- -- -- -- -- --
2019-11-16 18:00:00 -- -- -- -- -- -- -- -- --
2019-11-16 17:00:00 -- -- -- -- -- -- -- -- --
2019-11-16 16:00:00 -- -- -- -- -- -- -- -- --
2019-11-16 15:00:00 -- -- -- -- -- -- -- -- --
2019-11-16 14:00:00 -- -- -- -- -- -- -- -- --
2019-11-16 13:00:00 -- -- -- -- -- -- -- -- --
2019-11-16 12:00:00 -- -- -- -- -- -- -- -- --
2019-11-16 11:00:00 -- -- -- -- -- -- -- -- --
2019-11-16 10:00:00 -- -- -- -- -- -- -- -- --
2019-11-16 09:00:00 -- -- -- -- -- -- -- -- --
2019-11-16 08:00:00 -- -- -- -- -- -- -- -- --
2019-11-16 07:00:00 -- -- -- -- -- -- -- -- --
2019-11-16 06:00:00 -- -- -- -- -- -- -- -- --
2019-11-16 05:00:00 -- -- -- -- -- -- -- -- --
2019-11-16 04:00:00 -- -- -- -- -- -- -- -- --
2019-11-16 03:00:00 -- -- -- -- -- -- -- -- --
2019-11-16 02:00:00 -- -- -- -- -- -- -- -- --
2019-11-16 01:00:00 -- -- -- -- -- -- -- -- --
2019-11-16 00:00:00 -- -- -- -- -- -- -- -- --
2019-11-15 23:00:00 -- -- -- -- -- -- -- -- --
2019-11-15 22:00:00 -- -- -- -- -- -- -- -- --
2019-11-15 21:00:00 -- -- -- -- -- -- -- -- --
2019-11-15 20:00:00 -- -- -- -- -- -- -- -- --
2019-11-15 19:00:00 -- -- -- -- -- -- -- -- --
2019-11-15 18:00:00 -- -- -- -- -- -- -- -- --
2019-11-15 17:00:00 -- -- -- -- -- -- -- -- --
2019-11-15 16:00:00 -- -- -- -- -- -- -- -- --
2019-11-15 15:00:00 -- -- -- -- -- -- -- -- --
2019-11-15 14:00:00 -- -- -- -- -- -- -- -- --
2019-11-15 13:00:00 -- -- -- -- -- -- -- -- --
2019-11-15 12:00:00 -- -- -- -- -- -- -- -- --
2019-11-15 11:00:00 -- -- -- -- -- -- -- -- --
2019-11-15 10:00:00 -- -- -- -- -- -- -- -- --
2019-11-15 09:00:00 -- -- -- -- -- -- -- -- --
2019-11-15 08:00:00 -- -- -- -- -- -- -- -- --
2019-11-15 07:00:00 -- -- -- -- -- -- -- -- --
2019-11-15 06:00:00 -- -- -- -- -- -- -- -- --
2019-11-15 05:00:00 -- -- -- -- -- -- -- -- --
2019-11-15 04:00:00 -- -- -- -- -- -- -- -- --
2019-11-15 03:00:00 -- -- -- -- -- -- -- -- --
2019-11-15 02:00:00 -- -- -- -- -- -- -- -- --
2019-11-15 01:00:00 -- -- -- -- -- -- -- -- --
2019-11-15 00:00:00 -- -- -- -- -- -- -- -- --